sensor_id;sensor_type;location;lat;lon;timestamp;P1;durP1;ratioP1;P2;durP2;ratioP2
27201;SDS011;14717;46.924;15.474;2023-03-21T00:01:40;11.88;;;5.70;;
27201;SDS011;14717;46.924;15.474;2023-03-21T00:04:06;12.93;;;6.45;;
27201;SDS011;14717;46.924;15.474;2023-03-21T00:06:31;11.10;;;5.93;;
27201;SDS011;14717;46.924;15.474;2023-03-21T00:08:56;12.85;;;5.80;;
27201;SDS011;14717;46.924;15.474;2023-03-21T00:11:22;13.75;;;5.65;;
27201;SDS011;14717;46.924;15.474;2023-03-21T00:13:47;11.68;;;6.40;;
27201;SDS011;14717;46.924;15.474;2023-03-21T00:16:14;11.40;;;6.57;;
27201;SDS011;14717;46.924;15.474;2023-03-21T00:18:42;14.05;;;6.72;;
27201;SDS011;14717;46.924;15.474;2023-03-21T00:21:11;10.23;;;5.57;;
27201;SDS011;14717;46.924;15.474;2023-03-21T00:23:42;15.05;;;6.93;;
27201;SDS011;14717;46.924;15.474;2023-03-21T00:26:09;15.32;;;6.57;;
27201;SDS011;14717;46.924;15.474;2023-03-21T00:28:35;12.35;;;6.10;;
27201;SDS011;14717;46.924;15.474;2023-03-21T00:31:01;10.43;;;6.00;;
27201;SDS011;14717;46.924;15.474;2023-03-21T00:33:27;12.43;;;6.00;;
27201;SDS011;14717;46.924;15.474;2023-03-21T00:35:52;13.68;;;6.32;;
27201;SDS011;14717;46.924;15.474;2023-03-21T00:38:19;12.15;;;6.80;;
27201;SDS011;14717;46.924;15.474;2023-03-21T00:40:45;16.40;;;7.97;;
27201;SDS011;14717;46.924;15.474;2023-03-21T00:43:11;17.73;;;8.23;;
27201;SDS011;14717;46.924;15.474;2023-03-21T00:45:38;13.88;;;8.10;;
27201;SDS011;14717;46.924;15.474;2023-03-21T00:48:04;15.23;;;7.47;;
27201;SDS011;14717;46.924;15.474;2023-03-21T00:52:56;12.48;;;6.13;;
27201;SDS011;14717;46.924;15.474;2023-03-21T00:55:22;15.27;;;6.70;;
27201;SDS011;14717;46.924;15.474;2023-03-21T00:57:47;11.70;;;5.85;;
27201;SDS011;14717;46.924;15.474;2023-03-21T01:00:13;10.75;;;6.25;;
27201;SDS011;14717;46.924;15.474;2023-03-21T01:02:39;13.93;;;6.45;;
27201;SDS011;14717;46.924;15.474;2023-03-21T01:05:20;12.00;;;6.95;;
27201;SDS011;14717;46.924;15.474;2023-03-21T01:08:10;11.52;;;6.45;;
27201;SDS011;14717;46.924;15.474;2023-03-21T01:10:39;9.93;;;6.18;;
27201;SDS011;14717;46.924;15.474;2023-03-21T01:13:06;13.93;;;6.68;;
27201;SDS011;14717;46.924;15.474;2023-03-21T01:15:33;10.80;;;6.47;;
27201;SDS011;14717;46.924;15.474;2023-03-21T01:17:59;12.05;;;6.97;;
27201;SDS011;14717;46.924;15.474;2023-03-21T01:20:25;11.10;;;5.70;;
27201;SDS011;14717;46.924;15.474;2023-03-21T01:22:51;12.38;;;6.55;;
27201;SDS011;14717;46.924;15.474;2023-03-21T01:25:16;12.85;;;7.00;;
27201;SDS011;14717;46.924;15.474;2023-03-21T01:27:42;10.88;;;6.05;;
27201;SDS011;14717;46.924;15.474;2023-03-21T01:30:07;11.00;;;6.03;;
27201;SDS011;14717;46.924;15.474;2023-03-21T01:32:33;13.10;;;6.50;;
27201;SDS011;14717;46.924;15.474;2023-03-21T01:34:59;12.93;;;6.28;;
27201;SDS011;14717;46.924;15.474;2023-03-21T01:37:24;11.85;;;6.00;;
27201;SDS011;14717;46.924;15.474;2023-03-21T01:39:50;11.25;;;6.35;;
27201;SDS011;14717;46.924;15.474;2023-03-21T01:42:16;14.88;;;6.47;;
27201;SDS011;14717;46.924;15.474;2023-03-21T01:45:04;13.45;;;6.22;;
27201;SDS011;14717;46.924;15.474;2023-03-21T01:47:31;11.55;;;6.50;;
27201;SDS011;14717;46.924;15.474;2023-03-21T01:49:57;10.55;;;6.03;;
27201;SDS011;14717;46.924;15.474;2023-03-21T01:52:27;12.00;;;6.25;;
27201;SDS011;14717;46.924;15.474;2023-03-21T01:54:56;13.02;;;6.40;;
27201;SDS011;14717;46.924;15.474;2023-03-21T01:57:28;13.85;;;6.40;;
27201;SDS011;14717;46.924;15.474;2023-03-21T01:59:59;12.07;;;6.28;;
27201;SDS011;14717;46.924;15.474;2023-03-21T02:02:36;10.75;;;5.80;;
27201;SDS011;14717;46.924;15.474;2023-03-21T02:05:16;11.02;;;5.72;;
27201;SDS011;14717;46.924;15.474;2023-03-21T02:07:46;8.55;;;5.13;;
27201;SDS011;14717;46.924;15.474;2023-03-21T02:10:14;11.15;;;5.93;;
27201;SDS011;14717;46.924;15.474;2023-03-21T02:12:40;9.88;;;5.45;;
27201;SDS011;14717;46.924;15.474;2023-03-21T02:15:07;9.95;;;5.10;;
27201;SDS011;14717;46.924;15.474;2023-03-21T02:17:44;8.00;;;4.68;;
27201;SDS011;14717;46.924;15.474;2023-03-21T02:35:24;7.40;;;4.13;;
27201;SDS011;14717;46.924;15.474;2023-03-21T02:40:57;7.22;;;4.07;;
27201;SDS011;14717;46.924;15.474;2023-03-21T02:43:31;6.75;;;3.63;;
27201;SDS011;14717;46.924;15.474;2023-03-21T02:46:21;7.60;;;3.70;;
27201;SDS011;14717;46.924;15.474;2023-03-21T02:48:56;6.68;;;3.70;;
27201;SDS011;14717;46.924;15.474;2023-03-21T02:51:27;6.43;;;3.45;;
27201;SDS011;14717;46.924;15.474;2023-03-21T02:53:58;5.88;;;3.65;;
27201;SDS011;14717;46.924;15.474;2023-03-21T02:56:28;5.82;;;3.00;;
27201;SDS011;14717;46.924;15.474;2023-03-21T02:58:55;6.40;;;3.28;;
27201;SDS011;14717;46.924;15.474;2023-03-21T03:01:21;7.60;;;3.53;;
27201;SDS011;14717;46.924;15.474;2023-03-21T03:03:49;5.72;;;3.20;;
27201;SDS011;14717;46.924;15.474;2023-03-21T03:06:16;4.95;;;3.28;;
27201;SDS011;14717;46.924;15.474;2023-03-21T03:16:42;5.72;;;2.75;;
27201;SDS011;14717;46.924;15.474;2023-03-21T03:19:28;7.10;;;3.17;;
27201;SDS011;14717;46.924;15.474;2023-03-21T03:22:09;5.50;;;3.03;;
27201;SDS011;14717;46.924;15.474;2023-03-21T03:24:44;4.50;;;2.67;;
27201;SDS011;14717;46.924;15.474;2023-03-21T03:27:17;4.93;;;2.80;;
27201;SDS011;14717;46.924;15.474;2023-03-21T03:29:48;4.55;;;2.45;;
27201;SDS011;14717;46.924;15.474;2023-03-21T03:34:51;7.72;;;3.08;;
27201;SDS011;14717;46.924;15.474;2023-03-21T03:37:20;5.88;;;2.88;;
27201;SDS011;14717;46.924;15.474;2023-03-21T03:39:57;5.80;;;3.05;;
27201;SDS011;14717;46.924;15.474;2023-03-21T03:42:53;5.82;;;2.83;;
27201;SDS011;14717;46.924;15.474;2023-03-21T03:45:27;5.50;;;2.80;;
27201;SDS011;14717;46.924;15.474;2023-03-21T03:48:13;6.03;;;3.65;;
27201;SDS011;14717;46.924;15.474;2023-03-21T03:53:42;5.32;;;2.90;;
27201;SDS011;14717;46.924;15.474;2023-03-21T03:56:15;4.97;;;3.03;;
27201;SDS011;14717;46.924;15.474;2023-03-21T03:58:41;5.05;;;2.92;;
27201;SDS011;14717;46.924;15.474;2023-03-21T04:01:06;7.47;;;3.72;;
27201;SDS011;14717;46.924;15.474;2023-03-21T04:03:32;7.07;;;3.22;;
27201;SDS011;14717;46.924;15.474;2023-03-21T04:06:01;5.05;;;3.22;;
27201;SDS011;14717;46.924;15.474;2023-03-21T04:08:28;6.32;;;3.10;;
27201;SDS011;14717;46.924;15.474;2023-03-21T04:10:54;4.38;;;2.70;;
27201;SDS011;14717;46.924;15.474;2023-03-21T04:13:19;4.95;;;2.85;;
27201;SDS011;14717;46.924;15.474;2023-03-21T04:15:45;8.27;;;3.22;;
27201;SDS011;14717;46.924;15.474;2023-03-21T04:18:10;7.05;;;2.75;;
27201;SDS011;14717;46.924;15.474;2023-03-21T04:20:35;5.72;;;2.63;;
27201;SDS011;14717;46.924;15.474;2023-03-21T04:23:01;4.18;;;2.72;;
27201;SDS011;14717;46.924;15.474;2023-03-21T04:25:26;5.65;;;2.97;;
27201;SDS011;14717;46.924;15.474;2023-03-21T04:27:52;5.40;;;3.03;;
27201;SDS011;14717;46.924;15.474;2023-03-21T04:30:20;6.65;;;2.80;;
27201;SDS011;14717;46.924;15.474;2023-03-21T04:32:48;5.30;;;2.70;;
27201;SDS011;14717;46.924;15.474;2023-03-21T04:35:18;5.88;;;2.65;;
27201;SDS011;14717;46.924;15.474;2023-03-21T04:37:44;4.15;;;2.50;;
27201;SDS011;14717;46.924;15.474;2023-03-21T04:42:36;4.68;;;2.50;;
27201;SDS011;14717;46.924;15.474;2023-03-21T04:45:02;4.15;;;2.50;;
27201;SDS011;14717;46.924;15.474;2023-03-21T04:49:54;4.63;;;2.40;;
27201;SDS011;14717;46.924;15.474;2023-03-21T04:52:20;4.93;;;2.58;;
27201;SDS011;14717;46.924;15.474;2023-03-21T04:54:46;4.95;;;2.75;;
27201;SDS011;14717;46.924;15.474;2023-03-21T04:57:11;6.13;;;2.80;;
27201;SDS011;14717;46.924;15.474;2023-03-21T04:59:37;4.63;;;2.60;;
27201;SDS011;14717;46.924;15.474;2023-03-21T05:02:02;6.68;;;2.95;;
27201;SDS011;14717;46.924;15.474;2023-03-21T05:04:27;10.63;;;3.40;;
27201;SDS011;14717;46.924;15.474;2023-03-21T05:06:53;5.75;;;2.92;;
27201;SDS011;14717;46.924;15.474;2023-03-21T05:09:19;5.05;;;2.90;;
27201;SDS011;14717;46.924;15.474;2023-03-21T05:14:13;5.70;;;3.35;;
27201;SDS011;14717;46.924;15.474;2023-03-21T05:16:44;5.78;;;2.95;;
27201;SDS011;14717;46.924;15.474;2023-03-21T05:19:17;3.92;;;2.20;;
27201;SDS011;14717;46.924;15.474;2023-03-21T05:21:44;5.32;;;2.50;;
27201;SDS011;14717;46.924;15.474;2023-03-21T05:24:14;8.73;;;2.70;;
27201;SDS011;14717;46.924;15.474;2023-03-21T05:26:42;4.68;;;2.67;;
27201;SDS011;14717;46.924;15.474;2023-03-21T05:29:08;7.35;;;2.63;;
27201;SDS011;14717;46.924;15.474;2023-03-21T05:31:34;6.35;;;2.03;;
27201;SDS011;14717;46.924;15.474;2023-03-21T05:34:00;4.95;;;2.50;;
27201;SDS011;14717;46.924;15.474;2023-03-21T05:38:52;4.30;;;2.50;;
27201;SDS011;14717;46.924;15.474;2023-03-21T05:41:17;4.85;;;2.75;;
27201;SDS011;14717;46.924;15.474;2023-03-21T05:43:42;5.78;;;2.50;;
27201;SDS011;14717;46.924;15.474;2023-03-21T05:46:08;5.03;;;2.60;;
27201;SDS011;14717;46.924;15.474;2023-03-21T05:48:34;4.13;;;2.50;;
27201;SDS011;14717;46.924;15.474;2023-03-21T05:51:00;4.32;;;2.47;;
27201;SDS011;14717;46.924;15.474;2023-03-21T05:53:26;4.45;;;2.38;;
27201;SDS011;14717;46.924;15.474;2023-03-21T05:55:52;5.93;;;2.40;;
27201;SDS011;14717;46.924;15.474;2023-03-21T05:58:17;5.60;;;2.50;;
27201;SDS011;14717;46.924;15.474;2023-03-21T06:00:42;4.80;;;2.50;;
27201;SDS011;14717;46.924;15.474;2023-03-21T06:03:08;5.15;;;2.30;;
27201;SDS011;14717;46.924;15.474;2023-03-21T06:05:33;4.78;;;2.33;;
27201;SDS011;14717;46.924;15.474;2023-03-21T06:07:58;5.40;;;2.60;;
27201;SDS011;14717;46.924;15.474;2023-03-21T06:10:24;5.88;;;2.35;;
27201;SDS011;14717;46.924;15.474;2023-03-21T06:12:49;3.67;;;2.28;;
27201;SDS011;14717;46.924;15.474;2023-03-21T06:15:15;5.60;;;2.47;;
27201;SDS011;14717;46.924;15.474;2023-03-21T06:17:40;4.88;;;2.67;;
27201;SDS011;14717;46.924;15.474;2023-03-21T06:20:06;5.97;;;3.00;;
27201;SDS011;14717;46.924;15.474;2023-03-21T06:22:32;6.28;;;2.78;;
27201;SDS011;14717;46.924;15.474;2023-03-21T06:24:58;6.50;;;2.92;;
27201;SDS011;14717;46.924;15.474;2023-03-21T06:27:24;6.05;;;2.65;;
27201;SDS011;14717;46.924;15.474;2023-03-21T06:29:50;5.78;;;2.60;;
27201;SDS011;14717;46.924;15.474;2023-03-21T06:32:15;3.47;;;2.15;;
27201;SDS011;14717;46.924;15.474;2023-03-21T06:34:41;6.53;;;2.40;;
27201;SDS011;14717;46.924;15.474;2023-03-21T06:37:07;5.03;;;2.40;;
27201;SDS011;14717;46.924;15.474;2023-03-21T06:39:32;5.38;;;2.10;;
27201;SDS011;14717;46.924;15.474;2023-03-21T06:41:57;3.60;;;2.22;;
27201;SDS011;14717;46.924;15.474;2023-03-21T06:44:23;3.83;;;2.20;;
27201;SDS011;14717;46.924;15.474;2023-03-21T06:46:49;6.25;;;2.50;;
27201;SDS011;14717;46.924;15.474;2023-03-21T06:49:16;5.18;;;2.00;;
27201;SDS011;14717;46.924;15.474;2023-03-21T06:51:41;5.70;;;2.20;;
27201;SDS011;14717;46.924;15.474;2023-03-21T06:54:07;3.92;;;1.90;;
27201;SDS011;14717;46.924;15.474;2023-03-21T06:56:32;7.75;;;2.40;;
27201;SDS011;14717;46.924;15.474;2023-03-21T06:58:57;5.38;;;2.67;;
27201;SDS011;14717;46.924;15.474;2023-03-21T07:01:23;6.20;;;2.30;;
27201;SDS011;14717;46.924;15.474;2023-03-21T07:03:51;5.18;;;2.97;;
27201;SDS011;14717;46.924;15.474;2023-03-21T07:06:17;4.72;;;2.35;;
27201;SDS011;14717;46.924;15.474;2023-03-21T07:08:43;4.63;;;2.33;;
27201;SDS011;14717;46.924;15.474;2023-03-21T07:11:08;5.05;;;2.38;;
27201;SDS011;14717;46.924;15.474;2023-03-21T07:13:34;6.28;;;2.10;;
27201;SDS011;14717;46.924;15.474;2023-03-21T07:16:00;5.28;;;2.15;;
27201;SDS011;14717;46.924;15.474;2023-03-21T07:18:26;4.32;;;2.20;;
27201;SDS011;14717;46.924;15.474;2023-03-21T07:20:51;5.00;;;2.40;;
27201;SDS011;14717;46.924;15.474;2023-03-21T07:23:17;5.38;;;2.13;;
27201;SDS011;14717;46.924;15.474;2023-03-21T07:25:46;4.45;;;1.92;;
27201;SDS011;14717;46.924;15.474;2023-03-21T07:28:12;3.25;;;2.10;;
27201;SDS011;14717;46.924;15.474;2023-03-21T07:30:38;4.10;;;2.20;;
27201;SDS011;14717;46.924;15.474;2023-03-21T07:33:03;3.78;;;2.20;;
27201;SDS011;14717;46.924;15.474;2023-03-21T07:35:29;4.55;;;2.30;;
27201;SDS011;14717;46.924;15.474;2023-03-21T07:37:55;4.00;;;2.42;;
27201;SDS011;14717;46.924;15.474;2023-03-21T07:40:20;3.40;;;2.10;;
27201;SDS011;14717;46.924;15.474;2023-03-21T07:42:47;10.52;;;3.10;;
27201;SDS011;14717;46.924;15.474;2023-03-21T07:45:13;8.15;;;2.95;;
27201;SDS011;14717;46.924;15.474;2023-03-21T07:47:42;6.75;;;2.70;;
27201;SDS011;14717;46.924;15.474;2023-03-21T07:50:07;9.85;;;3.00;;
27201;SDS011;14717;46.924;15.474;2023-03-21T07:52:33;6.20;;;2.78;;
27201;SDS011;14717;46.924;15.474;2023-03-21T07:54:58;7.13;;;3.00;;
27201;SDS011;14717;46.924;15.474;2023-03-21T07:57:24;5.65;;;2.80;;
27201;SDS011;14717;46.924;15.474;2023-03-21T07:59:50;8.73;;;2.55;;
27201;SDS011;14717;46.924;15.474;2023-03-21T08:02:16;9.27;;;2.58;;
27201;SDS011;14717;46.924;15.474;2023-03-21T08:04:42;10.32;;;2.90;;
27201;SDS011;14717;46.924;15.474;2023-03-21T08:07:08;8.75;;;2.65;;
27201;SDS011;14717;46.924;15.474;2023-03-21T08:09:34;5.18;;;2.60;;
27201;SDS011;14717;46.924;15.474;2023-03-21T08:12:01;4.85;;;2.20;;
27201;SDS011;14717;46.924;15.474;2023-03-21T08:16:52;6.67;;;2.23;;
27201;SDS011;14717;46.924;15.474;2023-03-21T08:19:17;5.15;;;2.33;;
27201;SDS011;14717;46.924;15.474;2023-03-21T08:21:45;6.05;;;2.30;;
27201;SDS011;14717;46.924;15.474;2023-03-21T08:24:14;4.47;;;2.28;;
27201;SDS011;14717;46.924;15.474;2023-03-21T08:26:40;5.95;;;2.38;;
27201;SDS011;14717;46.924;15.474;2023-03-21T08:29:05;8.50;;;2.10;;
27201;SDS011;14717;46.924;15.474;2023-03-21T08:31:31;10.93;;;2.90;;
27201;SDS011;14717;46.924;15.474;2023-03-21T08:33:56;5.38;;;1.80;;
27201;SDS011;14717;46.924;15.474;2023-03-21T08:36:22;2.95;;;1.60;;
27201;SDS011;14717;46.924;15.474;2023-03-21T08:38:48;3.25;;;1.58;;
27201;SDS011;14717;46.924;15.474;2023-03-21T08:41:17;2.97;;;1.30;;
27201;SDS011;14717;46.924;15.474;2023-03-21T08:43:44;4.03;;;1.60;;
27201;SDS011;14717;46.924;15.474;2023-03-21T08:46:10;2.85;;;1.52;;
27201;SDS011;14717;46.924;15.474;2023-03-21T08:48:35;4.72;;;1.30;;
27201;SDS011;14717;46.924;15.474;2023-03-21T08:51:02;2.28;;;1.40;;
27201;SDS011;14717;46.924;15.474;2023-03-21T08:53:28;7.28;;;1.80;;
27201;SDS011;14717;46.924;15.474;2023-03-21T08:55:54;3.78;;;1.60;;
27201;SDS011;14717;46.924;15.474;2023-03-21T08:58:19;4.07;;;1.63;;
27201;SDS011;14717;46.924;15.474;2023-03-21T09:00:45;3.55;;;1.58;;
27201;SDS011;14717;46.924;15.474;2023-03-21T09:03:10;8.85;;;1.77;;
27201;SDS011;14717;46.924;15.474;2023-03-21T09:05:36;7.28;;;1.70;;
27201;SDS011;14717;46.924;15.474;2023-03-21T09:08:01;8.48;;;1.98;;
27201;SDS011;14717;46.924;15.474;2023-03-21T09:12:53;5.40;;;1.80;;
27201;SDS011;14717;46.924;15.474;2023-03-21T09:15:20;4.07;;;1.67;;
27201;SDS011;14717;46.924;15.474;2023-03-21T09:17:49;3.25;;;1.50;;
27201;SDS011;14717;46.924;15.474;2023-03-21T09:20:16;2.67;;;1.58;;
27201;SDS011;14717;46.924;15.474;2023-03-21T09:22:45;1.90;;;1.05;;
27201;SDS011;14717;46.924;15.474;2023-03-21T09:25:12;4.15;;;1.45;;
27201;SDS011;14717;46.924;15.474;2023-03-21T09:27:39;2.90;;;1.35;;
27201;SDS011;14717;46.924;15.474;2023-03-21T09:32:31;2.67;;;1.40;;
27201;SDS011;14717;46.924;15.474;2023-03-21T09:34:59;2.60;;;1.20;;
27201;SDS011;14717;46.924;15.474;2023-03-21T09:39:49;2.63;;;1.43;;
27201;SDS011;14717;46.924;15.474;2023-03-21T09:45:07;3.63;;;1.30;;
27201;SDS011;14717;46.924;15.474;2023-03-21T09:47:42;1.55;;;1.00;;
27201;SDS011;14717;46.924;15.474;2023-03-21T09:50:25;2.55;;;1.30;;
27201;SDS011;14717;46.924;15.474;2023-03-21T09:55:43;3.30;;;1.20;;
27201;SDS011;14717;46.924;15.474;2023-03-21T09:58:21;2.42;;;0.90;;
27201;SDS011;14717;46.924;15.474;2023-03-21T10:01:04;2.22;;;0.82;;
27201;SDS011;14717;46.924;15.474;2023-03-21T10:03:46;1.15;;;0.80;;
27201;SDS011;14717;46.924;15.474;2023-03-21T10:06:14;1.85;;;0.80;;
27201;SDS011;14717;46.924;15.474;2023-03-21T10:08:41;1.50;;;0.75;;
27201;SDS011;14717;46.924;15.474;2023-03-21T10:13:47;3.22;;;0.90;;
27201;SDS011;14717;46.924;15.474;2023-03-21T10:16:22;1.30;;;0.80;;
27201;SDS011;14717;46.924;15.474;2023-03-21T10:18:52;1.25;;;0.80;;
27201;SDS011;14717;46.924;15.474;2023-03-21T10:21:23;0.75;;;0.52;;
27201;SDS011;14717;46.924;15.474;2023-03-21T10:23:50;1.00;;;0.77;;
27201;SDS011;14717;46.924;15.474;2023-03-21T10:26:19;1.77;;;0.90;;
27201;SDS011;14717;46.924;15.474;2023-03-21T10:28:47;1.98;;;0.90;;
27201;SDS011;14717;46.924;15.474;2023-03-21T10:31:13;0.90;;;0.73;;
27201;SDS011;14717;46.924;15.474;2023-03-21T10:33:43;0.63;;;0.57;;
27201;SDS011;14717;46.924;15.474;2023-03-21T10:36:10;1.15;;;0.85;;
27201;SDS011;14717;46.924;15.474;2023-03-21T10:38:45;1.20;;;0.80;;
27201;SDS011;14717;46.924;15.474;2023-03-21T10:41:14;1.30;;;0.80;;
27201;SDS011;14717;46.924;15.474;2023-03-21T10:43:40;1.55;;;0.73;;
27201;SDS011;14717;46.924;15.474;2023-03-21T10:46:12;2.15;;;0.90;;
27201;SDS011;14717;46.924;15.474;2023-03-21T10:48:42;0.93;;;0.70;;
27201;SDS011;14717;46.924;15.474;2023-03-21T10:51:11;3.20;;;0.88;;
27201;SDS011;14717;46.924;15.474;2023-03-21T10:53:44;0.80;;;0.75;;
27201;SDS011;14717;46.924;15.474;2023-03-21T10:56:15;2.25;;;0.80;;
27201;SDS011;14717;46.924;15.474;2023-03-21T10:58:42;4.30;;;0.88;;
27201;SDS011;14717;46.924;15.474;2023-03-21T11:01:12;1.42;;;0.90;;
27201;SDS011;14717;46.924;15.474;2023-03-21T11:03:42;2.47;;;1.00;;
27201;SDS011;14717;46.924;15.474;2023-03-21T11:08:55;2.13;;;1.10;;
27201;SDS011;14717;46.924;15.474;2023-03-21T11:11:27;1.45;;;1.00;;
27201;SDS011;14717;46.924;15.474;2023-03-21T11:14:01;2.80;;;1.25;;
27201;SDS011;14717;46.924;15.474;2023-03-21T11:16:41;1.70;;;1.10;;
27201;SDS011;14717;46.924;15.474;2023-03-21T11:19:13;1.67;;;1.00;;
27201;SDS011;14717;46.924;15.474;2023-03-21T11:21:40;2.38;;;1.10;;
27201;SDS011;14717;46.924;15.474;2023-03-21T11:24:07;1.15;;;0.70;;
27201;SDS011;14717;46.924;15.474;2023-03-21T11:26:40;3.80;;;0.93;;
27201;SDS011;14717;46.924;15.474;2023-03-21T11:34:55;2.00;;;1.15;;
27201;SDS011;14717;46.924;15.474;2023-03-21T11:47:57;2.28;;;1.00;;
27201;SDS011;14717;46.924;15.474;2023-03-21T11:50:30;1.73;;;1.20;;
27201;SDS011;14717;46.924;15.474;2023-03-21T11:53:23;3.63;;;1.20;;
27201;SDS011;14717;46.924;15.474;2023-03-21T11:58:45;1.63;;;1.00;;
27201;SDS011;14717;46.924;15.474;2023-03-21T12:07:20;2.00;;;1.20;;
27201;SDS011;14717;46.924;15.474;2023-03-21T12:12:40;2.17;;;1.20;;
27201;SDS011;14717;46.924;15.474;2023-03-21T12:15:13;1.40;;;1.15;;
27201;SDS011;14717;46.924;15.474;2023-03-21T12:26:11;4.35;;;1.42;;
27201;SDS011;14717;46.924;15.474;2023-03-21T12:29:05;3.90;;;1.23;;
27201;SDS011;14717;46.924;15.474;2023-03-21T12:34:58;3.00;;;1.40;;
27201;SDS011;14717;46.924;15.474;2023-03-21T12:43:11;2.20;;;1.17;;
27201;SDS011;14717;46.924;15.474;2023-03-21T12:45:49;5.13;;;1.20;;
27201;SDS011;14717;46.924;15.474;2023-03-21T12:48:26;3.88;;;1.25;;
27201;SDS011;14717;46.924;15.474;2023-03-21T12:50:52;6.13;;;1.20;;
27201;SDS011;14717;46.924;15.474;2023-03-21T12:56:26;3.28;;;1.15;;
27201;SDS011;14717;46.924;15.474;2023-03-21T12:58:58;2.40;;;1.20;;
27201;SDS011;14717;46.924;15.474;2023-03-21T13:01:30;2.20;;;1.10;;
27201;SDS011;14717;46.924;15.474;2023-03-21T13:06:56;3.55;;;1.20;;
27201;SDS011;14717;46.924;15.474;2023-03-21T13:09:36;1.33;;;1.00;;
27201;SDS011;14717;46.924;15.474;2023-03-21T13:14:50;3.33;;;1.20;;
27201;SDS011;14717;46.924;15.474;2023-03-21T13:17:26;2.70;;;1.13;;
27201;SDS011;14717;46.924;15.474;2023-03-21T13:23:05;1.50;;;1.00;;
27201;SDS011;14717;46.924;15.474;2023-03-21T13:25:32;2.13;;;1.20;;
27201;SDS011;14717;46.924;15.474;2023-03-21T13:28:12;2.10;;;1.20;;
27201;SDS011;14717;46.924;15.474;2023-03-21T13:30:42;2.13;;;1.00;;
27201;SDS011;14717;46.924;15.474;2023-03-21T13:33:15;1.50;;;0.98;;
27201;SDS011;14717;46.924;15.474;2023-03-21T13:35:53;2.50;;;1.15;;
27201;SDS011;14717;46.924;15.474;2023-03-21T13:38:25;1.73;;;1.00;;
27201;SDS011;14717;46.924;15.474;2023-03-21T13:52:00;1.33;;;0.90;;
27201;SDS011;14717;46.924;15.474;2023-03-21T14:04:49;2.10;;;1.17;;
27201;SDS011;14717;46.924;15.474;2023-03-21T14:07:28;2.20;;;1.20;;
27201;SDS011;14717;46.924;15.474;2023-03-21T14:10:04;5.30;;;1.23;;
27201;SDS011;14717;46.924;15.474;2023-03-21T14:12:37;2.83;;;1.15;;
27201;SDS011;14717;46.924;15.474;2023-03-21T14:17:53;4.57;;;1.42;;
27201;SDS011;14717;46.924;15.474;2023-03-21T14:20:23;5.00;;;1.73;;
27201;SDS011;14717;46.924;15.474;2023-03-21T14:22:51;2.55;;;1.35;;
27201;SDS011;14717;46.924;15.474;2023-03-21T14:25:18;1.85;;;1.02;;
27201;SDS011;14717;46.924;15.474;2023-03-21T14:27:49;1.50;;;1.00;;
27201;SDS011;14717;46.924;15.474;2023-03-21T14:30:19;2.50;;;1.15;;
27201;SDS011;14717;46.924;15.474;2023-03-21T14:32:48;2.15;;;1.20;;
27201;SDS011;14717;46.924;15.474;2023-03-21T14:35:14;1.55;;;0.93;;
27201;SDS011;14717;46.924;15.474;2023-03-21T14:37:41;3.92;;;1.30;;
27201;SDS011;14717;46.924;15.474;2023-03-21T14:40:17;2.10;;;1.33;;
27201;SDS011;14717;46.924;15.474;2023-03-21T14:42:47;1.67;;;1.08;;
27201;SDS011;14717;46.924;15.474;2023-03-21T14:45:17;2.88;;;1.20;;
27201;SDS011;14717;46.924;15.474;2023-03-21T14:47:55;2.97;;;1.38;;
27201;SDS011;14717;46.924;15.474;2023-03-21T14:50:44;1.35;;;1.00;;
27201;SDS011;14717;46.924;15.474;2023-03-21T14:53:17;1.50;;;0.98;;
27201;SDS011;14717;46.924;15.474;2023-03-21T14:55:50;1.42;;;1.00;;
27201;SDS011;14717;46.924;15.474;2023-03-21T14:58:23;2.08;;;1.02;;
27201;SDS011;14717;46.924;15.474;2023-03-21T15:00:49;1.75;;;1.00;;
27201;SDS011;14717;46.924;15.474;2023-03-21T15:03:17;2.08;;;1.20;;
27201;SDS011;14717;46.924;15.474;2023-03-21T15:05:45;1.73;;;0.90;;
27201;SDS011;14717;46.924;15.474;2023-03-21T15:10:36;2.20;;;1.10;;
27201;SDS011;14717;46.924;15.474;2023-03-21T15:13:11;1.95;;;1.10;;
27201;SDS011;14717;46.924;15.474;2023-03-21T15:15:40;2.47;;;1.20;;
27201;SDS011;14717;46.924;15.474;2023-03-21T15:18:06;1.10;;;0.90;;
27201;SDS011;14717;46.924;15.474;2023-03-21T15:20:35;1.50;;;1.10;;
27201;SDS011;14717;46.924;15.474;2023-03-21T15:23:06;2.72;;;1.10;;
27201;SDS011;14717;46.924;15.474;2023-03-21T15:25:38;2.92;;;1.30;;
27201;SDS011;14717;46.924;15.474;2023-03-21T15:28:04;1.70;;;1.10;;
27201;SDS011;14717;46.924;15.474;2023-03-21T15:30:30;1.42;;;1.10;;
27201;SDS011;14717;46.924;15.474;2023-03-21T15:33:00;3.50;;;1.08;;
27201;SDS011;14717;46.924;15.474;2023-03-21T15:35:36;3.22;;;1.20;;
27201;SDS011;14717;46.924;15.474;2023-03-21T15:38:04;1.70;;;0.95;;
27201;SDS011;14717;46.924;15.474;2023-03-21T15:40:30;2.22;;;1.10;;
27201;SDS011;14717;46.924;15.474;2023-03-21T15:43:04;1.70;;;1.00;;
27201;SDS011;14717;46.924;15.474;2023-03-21T15:45:30;2.50;;;1.13;;
27201;SDS011;14717;46.924;15.474;2023-03-21T15:48:14;2.42;;;0.98;;
27201;SDS011;14717;46.924;15.474;2023-03-21T15:50:48;6.95;;;1.30;;
27201;SDS011;14717;46.924;15.474;2023-03-21T15:53:20;3.85;;;1.20;;
27201;SDS011;14717;46.924;15.474;2023-03-21T15:55:48;2.00;;;1.00;;
27201;SDS011;14717;46.924;15.474;2023-03-21T15:58:19;4.22;;;1.20;;
27201;SDS011;14717;46.924;15.474;2023-03-21T16:00:51;2.70;;;1.10;;
27201;SDS011;14717;46.924;15.474;2023-03-21T16:03:28;2.60;;;1.23;;
27201;SDS011;14717;46.924;15.474;2023-03-21T16:08:35;1.63;;;1.02;;
27201;SDS011;14717;46.924;15.474;2023-03-21T16:13:43;2.38;;;1.00;;
27201;SDS011;14717;46.924;15.474;2023-03-21T16:16:25;3.05;;;1.23;;
27201;SDS011;14717;46.924;15.474;2023-03-21T16:18:53;2.33;;;1.00;;
27201;SDS011;14717;46.924;15.474;2023-03-21T16:21:20;1.58;;;1.10;;
27201;SDS011;14717;46.924;15.474;2023-03-21T16:23:48;2.00;;;0.90;;
27201;SDS011;14717;46.924;15.474;2023-03-21T16:26:15;1.58;;;1.02;;
27201;SDS011;14717;46.924;15.474;2023-03-21T16:28:43;3.65;;;1.10;;
27201;SDS011;14717;46.924;15.474;2023-03-21T16:31:11;1.65;;;1.10;;
27201;SDS011;14717;46.924;15.474;2023-03-21T16:33:38;5.05;;;1.35;;
27201;SDS011;14717;46.924;15.474;2023-03-21T16:36:04;5.90;;;1.17;;
27201;SDS011;14717;46.924;15.474;2023-03-21T16:38:31;3.15;;;1.27;;
27201;SDS011;14717;46.924;15.474;2023-03-21T16:40:57;2.33;;;1.10;;
27201;SDS011;14717;46.924;15.474;2023-03-21T16:43:24;6.53;;;1.15;;
27201;SDS011;14717;46.924;15.474;2023-03-21T16:45:50;2.50;;;1.08;;
27201;SDS011;14717;46.924;15.474;2023-03-21T16:48:15;6.03;;;1.10;;
27201;SDS011;14717;46.924;15.474;2023-03-21T16:50:41;2.25;;;0.98;;
27201;SDS011;14717;46.924;15.474;2023-03-21T16:53:11;3.80;;;1.02;;
27201;SDS011;14717;46.924;15.474;2023-03-21T16:55:36;2.75;;;1.30;;
27201;SDS011;14717;46.924;15.474;2023-03-21T16:58:03;4.38;;;1.20;;
27201;SDS011;14717;46.924;15.474;2023-03-21T17:00:29;4.28;;;1.30;;
27201;SDS011;14717;46.924;15.474;2023-03-21T17:02:55;2.85;;;1.15;;
27201;SDS011;14717;46.924;15.474;2023-03-21T17:05:27;1.80;;;1.30;;
27201;SDS011;14717;46.924;15.474;2023-03-21T17:07:54;2.40;;;1.05;;
27201;SDS011;14717;46.924;15.474;2023-03-21T17:10:21;3.38;;;1.50;;
27201;SDS011;14717;46.924;15.474;2023-03-21T17:12:49;2.75;;;1.40;;
27201;SDS011;14717;46.924;15.474;2023-03-21T17:15:15;3.20;;;1.10;;
27201;SDS011;14717;46.924;15.474;2023-03-21T17:17:41;5.65;;;1.55;;